Latest Weather Observations for Kanagulk

IDV60801

Issued at 4:02 pm EDT Friday 27 March 2015 (issued every 30 minutes, with the page automatically refreshed every 10 minutes)

About weather observations | Map of weather stations | Latest weather observations for VIC | Other Formats
Station Details ID: 079097 Name: KANAGULK Lat: -37.12 Lon: 141.80 Height: 188.8 m
Data from the previous 72 hours. | See also: Recent months at Kanagulk
Date/Time
EDT
Temp
°C
App
Temp
°C
Dew
Point
Rel
Hum
%
Delta-T
°C
Wind Press
QNH
hPa
Press
MSL
hPa
Rain
since 9 am
mm
Dir
 
Spd
km/h
Gust
km/h
Spd
kts
Gust
kts
27/04:00pm 15.1 12.1 9.2 68 3.0 SW 15 26 8 14 1025.2 1024.7 0.0
27/03:30pm 15.7 13.3 8.7 63 3.6 SW 11 17 6 9 1025.3 1024.8 0.0
27/03:00pm 15.9 13.7 9.3 65 3.4 SW 11 19 6 10 1025.6 1025.1 0.0
27/02:30pm 14.5 11.3 8.5 67 3.1 SSW 15 24 8 13 1025.9 1025.4 0.0
27/02:00pm 15.0 11.3 8.0 63 3.5 SW 17 26 9 14 1026.0 1025.5 0.0
27/01:30pm 15.3 11.6 8.1 62 3.7 SSW 17 28 9 15 1026.3 1025.8 0.0
27/01:00pm 16.2 12.4 8.9 62 3.8 SW 19 30 10 16 1026.6 1026.1 0.0
27/12:30pm 13.9 9.9 8.1 68 2.9 SW 19 26 10 14 1026.8 1026.4 0.0
27/12:00pm 14.9 11.4 7.2 60 3.8 SSW 15 26 8 14 1026.8 1026.4 0.0
27/11:30am 13.7 9.4 7.7 67 3.0 SW 20 30 11 16 1027.0 1026.6 0.0
27/11:00am 13.2 9.5 9.3 77 2.0 SW 19 26 10 14 1026.9 1026.5 0.0
27/10:30am 11.8 8.2 9.9 88 1.0 SW 19 26 10 14 1026.9 1026.5 0.0
27/10:00am 11.5 9.3 10.9 96 0.3 WSW 13 20 7 11 1026.7 1026.3 0.0
27/09:30am 11.1 9.7 10.8 98 0.2 WSW 9 17 5 9 1026.5 1026.0 0.0
27/09:00am 10.6 9.0 10.3 98 0.2 WSW 9 17 5 9 1026.3 1025.8 1.2
27/08:30am 10.5 8.9 10.2 98 0.2 WSW 9 17 5 9 1026.0 1025.5 1.2
27/08:00am 10.5 8.1 10.2 98 0.2 SW 13 19 7 10 1025.7 1025.2 1.2
27/07:30am 10.1 7.6 9.8 98 0.2 SW 13 20 7 11 1025.3 1024.8 1.2
27/07:00am 10.1 8.0 9.8 98 0.2 WSW 11 15 6 8 1025.0 1024.5 1.2
27/06:30am 10.4 8.4 10.1 98 0.2 WSW 11 20 6 11 1024.9 1024.4 1.2
27/06:00am 10.5 7.8 10.3 99 0.1 WSW 15 30 8 16 1024.6 1024.1 1.2
27/05:30am 10.2 7.8 10.0 99 0.1 WSW 13 22 7 12 1024.5 1024.0 1.2
27/05:00am 10.6 8.6 10.3 98 0.2 WSW 11 20 6 11 1024.4 1023.9 1.2
27/04:30am 10.8 8.8 10.3 97 0.3 WSW 11 20 6 11 1024.1 1023.7 1.0
27/04:00am 10.7 8.7 10.2 97 0.3 WSW 11 19 6 10 1024.1 1023.7 1.0
27/03:30am 10.6 8.6 10.0 96 0.3 WSW 11 17 6 9 1024.1 1023.7 1.0
27/03:00am 10.9 8.2 10.3 96 0.3 WSW 15 26 8 14 1024.1 1023.7 1.0
27/02:30am 11.0 8.7 10.5 97 0.3 WSW 13 20 7 11 1024.0 1023.6 1.0
27/02:00am 11.1 9.2 10.6 97 0.3 WSW 11 20 6 11 1023.9 1023.5 1.0
27/01:30am 11.0 8.7 10.5 97 0.3 WSW 13 20 7 11 1023.9 1023.5 1.0
27/01:00am 11.1 9.3 10.9 99 0.1 WSW 11 20 6 11 1023.8 1023.4 1.0
27/12:30am 11.1 8.6 10.9 99 0.1 WSW 15 24 8 13 1023.9 1023.5 1.0
27/12:00am 11.0 9.2 10.8 99 0.1 WSW 11 17 6 9 1023.9 1023.5 1.0
 
Date/Time
EDT
Temp
°C
App
Temp
°C
Dew
Point
Rel
Hum
%
Delta-T
°C
Wind Press
QNH
hPa
Press
MSL
hPa
Rain
since 9 am
mm
Dir
 
Spd
km/h
Gust
km/h
Spd
kts
Gust
kts
26/11:30pm 11.2 9.4 11.0 99 0.1 WSW 11 19 6 10 1024.0 1023.6 0.8
26/11:00pm 11.2 9.1 11.0 99 0.1 WSW 13 20 7 11 1023.8 1023.4 0.8
26/10:30pm 11.1 9.3 10.9 99 0.1 WSW 11 20 6 11 1023.9 1023.5 0.8
26/10:00pm 11.0 8.4 10.8 99 0.1 W 15 26 8 14 1023.7 1023.3 0.8
26/09:30pm 10.8 8.5 10.6 99 0.1 W 13 20 7 11 1023.4 1023.0 0.8
26/09:00pm 10.7 8.0 10.4 98 0.2 W 15 24 8 13 1023.0 1022.6 0.6
26/08:30pm 10.9 8.1 10.0 94 0.5 W 15 26 8 14 1022.8 1022.4 0.4
26/08:00pm 11.2 8.3 9.6 90 0.8 W 15 24 8 13 1022.4 1022.0 0.4
26/07:30pm 11.3 7.9 9.2 87 1.1 W 17 32 9 17 1022.2 1021.8 0.4
26/07:00pm 12.2 8.6 8.5 78 1.8 W 17 28 9 15 1021.8 1021.3 0.4
26/06:30pm 12.4 8.8 8.3 76 2.0 WSW 17 28 9 15 1021.5 1021.0 0.4
26/06:00pm 12.9 8.6 7.8 71 2.5 W 20 39 11 21 1021.1 1020.6 0.4
26/05:30pm 12.8 8.6 8.3 74 2.3 WSW 20 37 11 20 1021.1 1020.6 0.4
26/05:00pm 13.9 9.6 7.7 66 3.1 WSW 20 41 11 22 1020.8 1020.3 0.4
26/04:46pm 12.9 7.1 7.8 71 2.5 W 28 46 15 25 1020.7 1020.2 0.4
26/04:30pm 14.7 10.4 7.7 63 3.5 W 20 33 11 18 1020.5 1020.0 0.4
26/04:00pm 14.5 10.1 7.3 62 3.6 W 20 41 11 22 1020.3 1019.8 0.4
26/03:30pm 12.6 8.0 8.1 74 2.2 W 22 35 12 19 1020.5 1020.0 0.4
26/03:00pm 13.2 9.5 9.3 77 2.0 W 19 32 10 17 1020.4 1019.9 0.4
26/02:30pm 11.7 6.3 7.8 77 1.9 W 26 52 14 28 1020.7 1020.2 0.4
26/02:00pm 14.4 9.2 5.7 56 4.2 WNW 22 35 12 19 1020.4 1019.9 0.0
26/01:30pm 13.7 8.7 6.3 61 3.6 W 22 37 12 20 1020.7 1020.2 0.0
26/01:00pm 14.5 9.0 4.2 50 4.8 W 22 39 12 21 1020.4 1019.9 0.0
26/12:30pm 13.7 8.4 4.8 55 4.2 W 22 37 12 20 1020.6 1020.1 0.0
26/12:00pm 13.5 8.5 4.4 54 4.2 W 20 35 11 19 1020.6 1020.1 0.0
26/11:30am 13.0 8.3 6.1 63 3.3 W 20 33 11 18 1020.7 1020.2 0.0
26/11:00am 12.6 8.5 6.4 66 3.0 W 17 35 9 19 1020.8 1020.3 0.0
26/10:30am 11.1 7.0 6.0 71 2.4 W 17 32 9 17 1020.5 1020.0 0.0
26/10:00am 10.7 6.6 6.3 74 2.1 W 17 30 9 16 1020.2 1019.7 0.0
26/09:30am 9.5 6.8 7.3 86 1.1 W 11 19 6 10 1020.0 1019.5 0.0
26/09:00am 8.3 5.5 7.1 92 0.6 WNW 11 17 6 9 1019.7 1019.2 2.4
26/08:30am 7.2 3.9 6.5 95 0.3 WNW 13 20 7 11 1019.4 1018.9 2.4
26/08:00am 6.3 3.2 5.6 95 0.3 WNW 11 17 6 9 1019.1 1018.6 2.4
26/07:30am 6.3 3.2 5.6 95 0.3 W 11 17 6 9 1018.8 1018.3 2.4
26/07:00am 6.3 3.7 5.9 97 0.2 W 9 17 5 9 1018.5 1018.1 2.4
26/06:30am 6.4 3.0 6.1 98 0.1 WNW 13 20 7 11 1018.1 1017.7 2.4
26/06:00am 6.3 3.7 6.2 99 0.0 WNW 9 19 5 10 1017.9 1017.5 2.4
26/05:30am 5.8 3.1 5.7 99 0.0 WNW 9 15 5 8 1017.6 1017.2 2.4
26/05:00am 6.2 3.6 6.1 99 0.0 NW 9 13 5 7 1017.4 1016.9 2.4
26/04:30am 6.4 3.5 6.3 99 0.0 NW 11 15 6 8 1017.2 1016.7 2.4
26/04:00am 6.5 3.5 6.2 98 0.1 NW 11 17 6 9 1017.0 1016.5 2.4
26/03:30am 6.7 3.8 6.4 98 0.1 NW 11 15 6 8 1017.0 1016.5 2.4
26/03:00am 6.7 4.1 6.3 97 0.2 WNW 9 11 5 6 1017.0 1016.5 2.4
26/02:30am 7.2 4.8 6.8 97 0.2 WNW 9 17 5 9 1017.1 1016.6 2.2
26/02:00am 8.0 5.4 7.7 98 0.1 W 11 20 6 11 1017.2 1016.7 2.2
26/01:30am 7.7 5.4 7.3 97 0.2 WNW 9 13 5 7 1017.0 1016.5 1.8
26/01:00am 8.1 5.5 7.7 97 0.2 NW 11 15 6 8 1016.7 1016.2 1.8
26/12:30am 8.1 5.8 7.5 96 0.3 NW 9 13 5 7 1016.7 1016.2 1.8
26/12:00am 8.6 6.4 7.8 95 0.4 WNW 9 15 5 8 1016.9 1016.4 1.8
 
Date/Time
EDT
Temp
°C
App
Temp
°C
Dew
Point
Rel
Hum
%
Delta-T
°C
Wind Press
QNH
hPa
Press
MSL
hPa
Rain
since 9 am
mm
Dir
 
Spd
km/h
Gust
km/h
Spd
kts
Gust
kts
25/11:30pm 8.8 6.6 8.0 95 0.4 WNW 9 13 5 7 1016.8 1016.3 1.8
25/11:00pm 9.0 7.3 8.2 95 0.4 WNW 7 13 4 7 1016.4 1015.9 1.8
25/10:30pm 8.9 7.1 8.1 95 0.4 NW 7 11 4 6 1016.3 1015.8 1.6
25/10:00pm 8.9 6.0 8.1 95 0.4 W 13 26 7 14 1016.7 1016.2 1.6
25/09:30pm 9.1 6.3 8.6 97 0.2 W 13 30 7 16 1016.3 1015.8 1.4
25/09:00pm 10.1 5.8 9.3 95 0.4 WSW 22 35 12 19 1015.6 1015.1 0.6
25/08:30pm 14.5 10.0 8.5 67 3.1 W 22 41 12 22 1014.4 1013.9 0.0
25/08:20pm 16.9 10.7 6.1 49 5.3 WNW 28 50 15 27 1013.8 1013.3 0.0
25/08:00pm 17.7 12.7 3.6 39 6.6 NW 19 33 10 18 1013.3 1012.8 0.0
25/07:30pm 17.9 12.7 3.4 38 6.8 NW 20 33 11 18 1013.0 1012.6 0.0
25/07:00pm 17.9 12.7 3.4 38 6.8 NNW 20 33 11 18 1013.2 1012.7 0.0
25/06:30pm 18.4 13.1 3.1 36 7.2 NNW 20 33 11 18 1013.2 1012.7 0.0
25/06:00pm 18.3 12.6 2.6 35 7.3 NW 22 33 12 18 1013.3 1012.8 0.0
25/05:30pm 18.7 14.3 2.9 35 7.4 NW 15 30 8 16 1013.4 1012.9 0.0
25/05:00pm 17.9 12.2 2.6 36 7.1 NW 22 39 12 21 1013.6 1013.1 0.0
25/04:30pm 18.6 13.9 2.9 35 7.3 NW 17 35 9 19 1014.0 1013.5 0.0
25/04:00pm 18.0 13.6 2.7 36 7.1 WNW 15 28 8 15 1014.5 1014.0 0.0
25/03:30pm 17.8 12.4 2.2 35 7.1 WNW 20 32 11 17 1014.9 1014.4 0.0
25/03:00pm 18.4 13.7 3.1 36 7.2 WNW 17 26 9 14 1015.3 1014.8 0.0
25/02:30pm 17.5 12.8 3.4 39 6.6 WNW 17 28 9 15 1015.8 1015.3 0.0
25/02:00pm 17.4 13.1 3.0 38 6.7 WNW 15 26 8 14 1016.3 1015.8 0.0
25/01:30pm 17.3 14.3 3.9 41 6.3 NW 9 24 5 13 1016.8 1016.3 0.0
25/01:00pm 15.1 11.1 3.0 44 5.5 NW 13 20 7 11 1017.2 1016.7 0.0
25/12:30pm 14.8 10.8 2.7 44 5.5 NW 13 20 7 11 1017.7 1017.3 0.0
25/12:00pm 14.3 10.7 2.9 46 5.1 NW 11 17 6 9 1018.4 1018.0 0.0
25/11:30am 14.4 11.2 2.9 46 5.2 NNW 9 17 5 9 1018.8 1018.3 0.0
25/11:00am 13.3 10.2 3.4 51 4.5 NNW 9 13 5 7 1019.0 1018.5 0.0
25/10:30am 13.9 10.4 3.4 49 4.8 N 11 17 6 9 1019.2 1018.7 0.0
25/10:00am 12.9 9.7 3.3 52 4.3 N 9 15 5 8 1018.8 1018.3 0.0
25/09:30am 11.8 9.1 3.8 58 3.6 NNW 7 13 4 7 1019.0 1018.5 0.0
25/09:00am 11.0 8.5 3.5 60 3.3 NNW 6 9 3 5 1019.4 1018.9 0.0
25/08:30am 9.7 8.1 4.5 70 2.3 N 2 6 1 3 1019.4 1018.9 0.0
25/08:00am 8.2 6.8 3.7 73 2.0 CALM 0 0 0 0 1019.5 1019.0 0.0
25/07:30am 8.2 6.8 3.7 73 2.0 CALM 0 0 0 0 1019.1 1018.6 0.0
25/07:00am 7.7 6.2 2.8 71 2.1 CALM 0 0 0 0 1019.2 1018.7 0.0
25/06:30am 8.3 6.8 2.8 68 2.3 CALM 0 0 0 0 1019.1 1018.6 0.0
25/06:00am 8.9 7.3 2.7 65 2.6 CALM 0 6 0 3 1019.1 1018.6 0.0
25/05:30am 10.1 7.9 3.4 63 2.9 WSW 4 7 2 4 1019.3 1018.8 0.0
25/05:00am 10.3 7.5 3.3 62 3.1 SW 7 11 4 6 1019.1 1018.6 0.0
25/04:30am 10.7 8.0 3.5 61 3.2 SSW 7 11 4 6 1019.3 1018.8 0.0
25/04:00am 10.6 7.8 3.4 61 3.2 WSW 7 17 4 9 1019.6 1019.1 0.0
25/03:30am 9.9 7.3 3.4 64 2.9 SW 6 9 3 5 1019.8 1019.3 0.0
25/03:00am 10.3 7.1 3.1 61 3.1 SSW 9 13 5 7 1019.9 1019.4 0.0
25/02:30am 10.2 7.6 3.3 62 3.0 SSW 6 11 3 6 1020.3 1019.8 0.0
25/02:00am 11.0 8.2 3.3 59 3.4 SSW 7 13 4 7 1020.5 1020.0 0.0
25/01:30am 10.9 8.5 4.1 63 3.1 SW 6 11 3 6 1021.2 1020.7 0.0
25/01:00am 10.7 9.5 4.4 65 2.8 CALM 0 0 0 0 1021.4 1020.9 0.0
25/12:30am 10.4 8.7 4.1 65 2.8 SSE 2 6 1 3 1021.4 1020.9 0.0
25/12:00am 11.0 8.9 4.0 62 3.1 SE 4 9 2 5 1021.3 1020.8 0.0
 
Date/Time
EDT
Temp
°C
App
Temp
°C
Dew
Point
Rel
Hum
%
Delta-T
°C
Wind Press
QNH
hPa
Press
MSL
hPa
Rain
since 9 am
mm
Dir
 
Spd
km/h
Gust
km/h
Spd
kts
Gust
kts
24/11:30pm 10.2 8.9 4.1 66 2.7 CALM 0 0 0 0 1021.7 1021.2 0.0
24/11:00pm 9.8 8.5 4.2 68 2.5 CALM 0 0 0 0 1021.9 1021.4 0.0
24/10:30pm 9.0 7.6 3.6 69 2.4 CALM 0 0 0 0 1021.5 1021.0 0.0
24/10:00pm 8.9 6.1 2.9 66 2.6 S 7 9 4 5 1021.6 1021.1 0.0
24/09:30pm 9.8 6.6 2.9 62 3.0 S 9 11 5 6 1021.0 1020.5 0.0
24/09:00pm 10.2 6.5 2.6 59 3.3 S 11 15 6 8 1020.7 1020.2 0.0
24/08:30pm 11.0 6.9 2.3 55 3.8 S 13 15 7 8 1020.7 1020.2 0.0
24/08:00pm 12.4 7.2 2.6 51 4.3 S 19 26 10 14 1020.7 1020.2 0.0
24/07:30pm 13.0 8.6 2.8 50 4.5 SSW 15 20 8 11 1020.7 1020.2 0.0
24/07:00pm 13.8 8.4 2.7 47 5.0 S 20 30 11 16 1020.3 1019.8 0.0
24/06:30pm 14.0 8.7 2.9 47 5.0 S 20 30 11 16 1020.3 1019.8 0.0
24/06:00pm 14.4 9.3 3.2 47 5.1 SSW 19 30 10 16 1020.3 1019.8 0.0
24/05:30pm 14.2 9.1 3.9 50 4.7 SSW 20 28 11 15 1020.1 1019.6 0.0
24/05:00pm 14.8 9.8 4.5 50 4.8 SSW 20 32 11 17 1020.1 1019.6 0.0
24/04:30pm 15.7 10.1 3.2 43 5.7 S 22 33 12 18 1020.0 1019.5 0.0

Other Formats:

Comma delimited format used in spreadsheet applications
http://www.bom.gov.au/fwo/IDV60801/IDV60801.95827.axf

JavaScript Object Notation format (JSON) in row-major order
http://www.bom.gov.au/fwo/IDV60801/IDV60801.95827.json